Vacarisses (Vallès Occidental)





Hora UTC 08:15
Temperatura 21.6 ºC
Humitat 68.0 %
Pressió 1014.0 hPa
Pluja 0.0 mm
Velocitat vent 2.9 km/h
Direcció vent

Dades diàries 2024-06-18



Hora UTC (hivern +1h; estiu +2h)
Temperatura (ºC) Humitat (%) Pressió (hPa) Velocitat vent (km/h) Precipitació (mm)
Hora UTC Aire Humitat Pressió Vel. Dir. Vel. Max Dir. Intent. màx 5 min.
00:05 16.7 84.0 1015.7 0.8 0.8 0.0
00:15 16.4 84.0 1015.5 0.9 3.9 0.0
00:25 16.2 85.0 1015.3 0.3 3.9 0.0
00:35 16.1 85.0 1015.2 0.0 3.9 0.0
00:45 16.1 85.0 1015.2 0.0 3.9 0.0
00:55 16.5 86.0 1015.2 0.6 3.9 0.0
01:05 15.9 86.0 1015.1 0.9 3.9 0.0
01:15 15.9 86.0 1015.1 0.9 3.9 0.0
01:25 15.7 86.0 1014.9 1.1 3.9 0.0
01:35 15.6 87.0 1014.9 0.1 3.9 0.0
01:45 15.6 87.0 1014.9 0.1 3.9 0.0
01:55 15.4 88.0 1014.8 0.1 3.9 0.0
02:05 15.7 89.0 1014.7 0.0 3.9 0.0
02:15 15.7 89.0 1014.7 0.0 3.9 0.0
02:25 15.8 90.0 1014.5 1.4 3.9 0.0
02:35 15.8 90.0 1014.5 1.4 3.9 0.0
02:45 15.8 89.0 1014.4 1.3 3.9 0.0
02:55 15.7 88.0 1014.5 0.0 3.9 0.0
03:05 15.3 89.0 1014.4 0.3 3.9 0.0
03:15 15.3 89.0 1014.4 0.3 3.9 0.0
03:25 15.0 89.0 1014.4 0.9 3.9 0.0
03:35 14.8 89.0 1014.2 0.7 3.9 0.0
03:45 14.8 89.0 1014.2 0.7 3.9 0.0
03:55 14.8 89.0 1014.2 1.0 3.9 0.0
04:05 14.6 89.0 1014.1 0.6 3.9 0.0
04:15 14.6 89.0 1014.1 0.6 3.9 0.0
04:25 14.3 90.0 1014.1 0.5 3.9 0.0
04:35 14.2 90.0 1014.1 2.4 3.9 0.0
04:45 14.2 90.0 1014.1 2.4 3.9 0.0
04:55 14.2 90.0 1014.2 1.2 3.9 0.0
05:05 14.4 90.0 1014.1 1.7 3.9 0.0
05:15 14.4 90.0 1014.1 1.7 3.9 0.0
05:25 15.4 89.0 1014.2 0.3 3.9 0.0
05:35 16.6 85.0 1014.3 0.3 3.9 0.0
05:45 16.6 85.0 1014.3 0.3 3.9 0.0
05:55 17.8 82.0 1014.4 0.0 3.9 0.0
06:05 17.8 82.0 1014.4 0.0 3.9 0.0
06:15 17.7 81.0 1014.4 1.4 3.9 0.0
06:25 17.8 80.0 1014.4 1.1 3.9 0.0
06:35 17.8 80.0 1014.4 1.1 3.9 0.0
06:45 18.6 79.0 1014.4 1.0 3.9 0.0
06:55 18.8 76.0 1014.4 2.4 4.6 0.0
07:05 18.8 76.0 1014.4 2.4 4.6 0.0
07:15 19.4 75.0 1014.5 2.4 6.3 0.0
07:25 19.7 74.0 1014.4 5.6 8.2 0.0
07:35 20.3 72.0 1014.2 3.7 8.2 0.0
07:45 20.3 72.0 1014.2 3.7 8.2 0.0
07:55 20.9 70.0 1014.0 3.7 8.2 0.0
08:05 21.6 68.0 1014.0 2.9 8.2 0.0
08:15 21.6 68.0 1014.0 2.9 8.2 0.0
Màxima 21.6 90.0 1015.7 5.6 8.2 0.0
Mínima 14.2 68.0 1014.0
Total 0.0